Terminal Aerodrome Forecast
Issued by NWS

Home | Current Version | Previous Version | Text Only | Print | Product List | Glossary On
Versions: 1 2 3 4 5 6 7 8 9 10 11 12 13 14 15 16 17 18 19
973
FTUS43 KJKL 212340
TAFSME
TAF
KSME 212340Z 2200/2224 01004KT P6SM SHRA VCTS OVC040CB
     FM220015 VRB03KT 5SM -SHRA OVC015
     FM221000 04006KT 6SM SHRA OVC015
     FM221200 05007KT 4SM SHRA VCTS OVC015CB
     FM221400 06006KT 4SM SHRA VCTS OVC008CB
     FM222300 03007KT 4SM SHRA VCTS OVC010CB=

USA.gov is the U.S. government's official web portal to all federal, state and local government web resources and services.